APL New Jersey — A8NM6 — position and weather

sailwx.info

Track history (hours):
 
Tides and Currents Weather Stations Pressure Air Temp Water Temp Dewpoint Dewpoint Depression Visibility Wind Speed Wind Dir Waves Ship Positions

APL New Jersey

Last reported at 2016-May-17 12:33 UTC. Time now 2016-May-25 09:15 UTC.
Position N 31°02' E 124°24'.

Length 293 m; draft 11.8 m.

Type: Cargo ship. MMSI: 636013522.

Date/timePositionNaut miles runAvg speedWind from/ knotsBaromVisibWave heightAir tempDewpointWater temp
2016-May-17 12:33N 31°02' E 124°24'10721.4
2016-May-17 07:32N 29°51' E 122°50'1919.6
2016-May-17 06:33N 29°41' E 122°32'1616.3
2016-May-17 05:33N 29°48' E 122°15'1010.3
2016-May-17 04:33N 29°55' E 122°06'8 8.4
2016-May-17 03:33N 29°58' E 121°57'5 1.1
2016-May-16 23:23N 29°56' E 121°52'0 0.0
2016-May-16 00:28N 29°56' E 121°52'3 3.6
2016-May-15 23:33N 29°57' E 121°56'1313.1
2016-May-15 22:33N 29°54' E 122°10'1211.2
2016-May-15 21:31N 29°45' E 122°19'6 6.6
2016-May-15 20:33N 29°44' E 122°26'1 0.0
2016-May-15 04:14N 29°44' E 122°27'0 0.1
2016-May-15 03:14N 29°44' E 122°27'0 0.0
2016-May-14 18:08N 29°44' E 122°27'0 0.1
2016-May-14 17:20N 29°44' E 122°27'0 0.1
2016-May-14 14:14N 29°44' E 122°27'0 0.1
2016-May-14 11:32N 29°44' E 122°27'3 3.0
2016-May-14 10:33N 29°43' E 122°30'97 8.5
2016-May-13 23:11N 31°15' E 121°55'1015.0
2016-May-13 22:32N 31°19' E 121°45'9 8.0
2016-May-13 21:25N 31°22' E 121°35'0 0.0
2016-May-13 19:31N 31°22' E 121°35'0 0.0
2016-May-13 17:07N 31°22' E 121°35'0 0.0
2016-May-13 15:19N 31°22' E 121°35'0 0.0
2016-May-13 14:25N 31°22' E 121°35'0 0.0
2016-May-13 13:25N 31°22' E 121°35'0 0.0
2016-May-13 12:31N 31°22' E 121°35'0 0.0
2016-May-13 10:19N 31°22' E 121°35'0 0.0
2016-May-13 06:31N 31°22' E 121°35'0 0.0
2016-May-13 04:19N 31°22' E 121°35'0 0.0
2016-May-13 01:31N 31°22' E 121°35'0 0.0
2016-May-13 00:31N 31°22' E 121°35'0 0.0
2016-May-12 23:31N 31°22' E 121°35'0 0.0
2016-May-12 22:19N 31°22' E 121°35'0 0.0
2016-May-12 21:31N 31°22' E 121°35'0 0.3
2016-May-12 20:33N 31°23' E 121°35'1 0.7
2016-May-12 19:33N 31°23' E 121°36'9 9.0
2016-May-12 18:33N 31°19' E 121°45'1210.6
2016-May-12 17:28N 31°15' E 121°58'1010.6
2016-May-12 16:33N 31°12' E 122°09'1010.5
2016-May-12 15:33N 31°06' E 122°19'8 7.9
2016-May-12 14:31N 31°07' E 122°28'1010.3
2016-May-12 13:33N 31°07' E 122°40'1111.2
2016-May-12 12:33N 31°08' E 122°53'1312.8
2016-May-12 11:31N 31°10' E 123°08'1213.0
2016-May-12 10:33N 31°16' E 123°21'2114.9
2016-May-12 09:11N 31°26' E 123°42'1416.0
2016-May-12 08:20N 31°32' E 123°57'1417.4
2016-May-12 07:31N 31°38' E 124°11'7017.7
2016-May-12 03:33N 32°06' E 125°27'  
Track history (hours):
 
Tides and Currents Weather Stations Pressure Air Temp Water Temp Dewpoint Dewpoint Depression Visibility Wind Speed Wind Dir Waves Ship Positions

APL New Jersey

Last reported at 2016-May-17 12:33 UTC. Time now 2016-May-25 09:15 UTC.
Position N 31°02' E 124°24'.

Length 293 m; draft 11.8 m.

Type: Cargo ship. MMSI: 636013522.

Date/timePositionNaut miles runAvg speedWind from/ knotsBaromVisibWave heightAir tempDewpointWater temp
2016-May-17 12:33N 31°02' E 124°24'10721.4
2016-May-17 07:32N 29°51' E 122°50'1919.6
2016-May-17 06:33N 29°41' E 122°32'1616.3
2016-May-17 05:33N 29°48' E 122°15'1010.3
2016-May-17 04:33N 29°55' E 122°06'8 8.4
2016-May-17 03:33N 29°58' E 121°57'5 1.1
2016-May-16 23:23N 29°56' E 121°52'0 0.0
2016-May-16 00:28N 29°56' E 121°52'3 3.6
2016-May-15 23:33N 29°57' E 121°56'1313.1
2016-May-15 22:33N 29°54' E 122°10'1211.2
2016-May-15 21:31N 29°45' E 122°19'6 6.6
2016-May-15 20:33N 29°44' E 122°26'1 0.0
2016-May-15 04:14N 29°44' E 122°27'0 0.1
2016-May-15 03:14N 29°44' E 122°27'0 0.0
2016-May-14 18:08N 29°44' E 122°27'0 0.1
2016-May-14 17:20N 29°44' E 122°27'0 0.1
2016-May-14 14:14N 29°44' E 122°27'0 0.1
2016-May-14 11:32N 29°44' E 122°27'3 3.0
2016-May-14 10:33N 29°43' E 122°30'97 8.5
2016-May-13 23:11N 31°15' E 121°55'1015.0
2016-May-13 22:32N 31°19' E 121°45'9 8.0
2016-May-13 21:25N 31°22' E 121°35'0 0.0
2016-May-13 19:31N 31°22' E 121°35'0 0.0
2016-May-13 17:07N 31°22' E 121°35'0 0.0
2016-May-13 15:19N 31°22' E 121°35'0 0.0
2016-May-13 14:25N 31°22' E 121°35'0 0.0
2016-May-13 13:25N 31°22' E 121°35'0 0.0
2016-May-13 12:31N 31°22' E 121°35'0 0.0
2016-May-13 10:19N 31°22' E 121°35'0 0.0
2016-May-13 06:31N 31°22' E 121°35'0 0.0
2016-May-13 04:19N 31°22' E 121°35'0 0.0
2016-May-13 01:31N 31°22' E 121°35'0 0.0
2016-May-13 00:31N 31°22' E 121°35'0 0.0
2016-May-12 23:31N 31°22' E 121°35'0 0.0
2016-May-12 22:19N 31°22' E 121°35'0 0.0
2016-May-12 21:31N 31°22' E 121°35'0 0.3
2016-May-12 20:33N 31°23' E 121°35'1 0.7
2016-May-12 19:33N 31°23' E 121°36'9 9.0
2016-May-12 18:33N 31°19' E 121°45'1210.6
2016-May-12 17:28N 31°15' E 121°58'1010.6
2016-May-12 16:33N 31°12' E 122°09'1010.5
2016-May-12 15:33N 31°06' E 122°19'8 7.9
2016-May-12 14:31N 31°07' E 122°28'1010.3
2016-May-12 13:33N 31°07' E 122°40'1111.2
2016-May-12 12:33N 31°08' E 122°53'1312.8
2016-May-12 11:31N 31°10' E 123°08'1213.0
2016-May-12 10:33N 31°16' E 123°21'2114.9
2016-May-12 09:11N 31°26' E 123°42'1416.0
2016-May-12 08:20N 31°32' E 123°57'1417.4
2016-May-12 07:31N 31°38' E 124°11'7017.7
2016-May-12 03:33N 32°06' E 125°27'  

Dump ship's entire track history